page 7917 of 1004592 registered users

eBook PostsUsers

  1. 0commercial620 registered @ 2013-06-16 22:57:31, last login @ 2013-06-16 22:57:31
  2. 0pumparrow1 registered @ 2013-06-16 22:59:39, last login @ 2013-06-16 22:59:39
  3. 0cloudyjoseph83 registered @ 2013-06-16 22:59:44, last login @ 2013-06-16 22:59:44
  4. 0yogurt8coast registered @ 2013-06-16 22:59:52, last login @ 2013-06-16 22:59:52
  5. 0unit7sharon registered @ 2013-06-16 23:00:47, last login @ 2013-06-16 23:00:47
  6. 0stillwellridge registered @ 2013-06-16 23:02:43, last login @ 2013-06-16 23:02:43
  7. 0cutgame0 registered @ 2013-06-16 23:04:58, last login @ 2013-06-16 23:31:45
  8. 0Yvonne0109 registered @ 2013-06-16 23:08:08, last login @ 2013-06-16 23:08:08
  9. 0santaform2 registered @ 2013-06-16 23:08:16, last login @ 2013-06-16 23:08:16
  10. 0linda5cell registered @ 2013-06-16 23:10:49, last login @ 2013-06-16 23:41:43
  11. 0cut06hemp registered @ 2013-06-16 23:11:43, last login @ 2013-06-16 23:11:43
  12. 0marginlyric78 registered @ 2013-06-16 23:12:08, last login @ 2013-06-16 23:40:16
  13. 0miserly54 registered @ 2013-06-16 23:12:24, last login @ 2013-06-16 23:12:24
  14. 0fontoboe08 registered @ 2013-06-16 23:13:13, last login @ 2013-06-16 23:13:13
  15. 0worm74feast registered @ 2013-06-16 23:13:21, last login @ 2013-06-17 00:00:33
  16. 0bite1look registered @ 2013-06-16 23:14:49, last login @ 2013-06-16 23:51:34
  17. 0calf66grip registered @ 2013-06-16 23:16:49, last login @ 2013-06-16 23:16:49
  18. 0fir22leo registered @ 2013-06-16 23:17:49, last login @ 2013-06-16 23:17:49
  19. 0renat701414 registered @ 2013-06-16 23:20:04, last login @ 2013-06-16 23:20:04
  20. 0washerzoo99 registered @ 2013-06-16 23:20:17, last login @ 2013-06-16 23:20:17
  21. 0tempo8cable registered @ 2013-06-16 23:22:22, last login @ 2013-06-16 23:22:22
  22. 0sex7plane registered @ 2013-06-16 23:23:05, last login @ 2013-06-16 23:23:05
  23. 0zapata registered @ 2013-06-16 23:24:42, last login @ 2013-06-16 23:24:42
  24. 0pimpleshop3 registered @ 2013-06-16 23:25:18, last login @ 2013-06-16 23:25:18
  25. 0quiver92female registered @ 2013-06-16 23:26:32, last login @ 2013-06-16 23:54:23
  26. 0woolbarge87 registered @ 2013-06-16 23:28:21, last login @ 2013-06-16 23:28:21
  27. 0BAuerbach registered @ 2013-06-16 23:28:42, last login @ 2013-06-16 23:28:42
  28. 0crayon53icicle registered @ 2013-06-16 23:29:47, last login @ 2013-06-16 23:29:47
  29. 0msriac registered @ 2013-06-16 23:30:05, last login @ 2013-06-16 23:30:05
  30. 0jamesdone86 registered @ 2013-06-16 23:31:22, last login @ 2013-06-16 23:31:22
  31. 0bangle5monkey registered @ 2013-06-16 23:32:23, last login @ 2013-06-16 23:32:23
  32. 0curler6alley registered @ 2013-06-16 23:34:39, last login @ 2013-06-16 23:34:39
  33. 0freon4dollar registered @ 2013-06-16 23:35:07, last login @ 2013-06-16 23:35:07
  34. 0slashbrown93 registered @ 2013-06-16 23:35:32, last login @ 2013-06-16 23:35:32
  35. 0dinner72ease registered @ 2013-06-16 23:35:36, last login @ 2013-06-16 23:35:36
  36. 0vacuum3teller registered @ 2013-06-16 23:38:15, last login @ 2013-06-16 23:38:15
  37. 0neon56branch registered @ 2013-06-16 23:39:33, last login @ 2013-06-16 23:39:33
  38. 0wfurkKK100 registered @ 2013-06-16 23:41:05, last login @ 2013-06-16 23:41:05
  39. 0sparktalk3 registered @ 2013-06-16 23:41:38, last login @ 2013-06-16 23:41:38
  40. 0boot8dog registered @ 2013-06-16 23:43:15, last login @ 2013-06-16 23:43:15
  41. 0cord84vacuum registered @ 2013-06-16 23:44:30, last login @ 2013-06-16 23:44:30
  42. 0shrine0parrot registered @ 2013-06-16 23:49:18, last login @ 2013-06-16 23:49:18
  43. 0dockchain32 registered @ 2013-06-16 23:50:37, last login @ 2013-06-16 23:50:37
  44. 0okra0nail registered @ 2013-06-16 23:51:18, last login @ 2013-06-16 23:51:18
  45. 0syria88shadow registered @ 2013-06-16 23:53:26, last login @ 2013-06-16 23:53:26
  46. 0easerouter71 registered @ 2013-06-16 23:53:36, last login @ 2013-06-16 23:53:36
  47. 0oak1neck registered @ 2013-06-16 23:54:07, last login @ 2013-06-16 23:54:07
  48. 0stonecorn51 registered @ 2013-06-16 23:55:23, last login @ 2013-06-16 23:55:23
  49. 0behrooz397 registered @ 2013-06-17 00:00:04, last login @ 2013-06-17 00:00:04
  50. 0kitty82turn registered @ 2013-06-17 00:00:05, last login @ 2013-06-17 00:00:05
  51. 0back87swan registered @ 2013-06-17 00:00:41, last login @ 2013-06-17 00:00:41
  52. 0Assunta registered @ 2013-06-17 00:00:50, last login @ 2013-06-17 00:00:50
  53. 0newsflavor25 registered @ 2013-06-17 00:01:11, last login @ 2013-06-17 00:01:11
  54. 0faint75 registered @ 2013-06-17 00:01:29, last login @ 2013-06-17 00:01:29
  55. 0store93bread registered @ 2013-06-17 00:01:49, last login @ 2013-06-17 00:01:49
  56. 0spoon2word registered @ 2013-06-17 00:02:59, last login @ 2013-06-17 00:02:59
  57. 0beamnovel38 registered @ 2013-06-17 00:03:31, last login @ 2013-06-17 00:03:31
  58. 0hituhks registered @ 2013-06-17 00:06:05, last login @ 2013-06-17 00:06:05
  59. 0blousewrench1 registered @ 2013-06-17 00:07:03, last login @ 2013-06-17 00:07:03
  60. 0gray38link registered @ 2013-06-17 00:08:05, last login @ 2013-06-17 00:08:05
  61. 0nic76reason registered @ 2013-06-17 00:09:05, last login @ 2013-06-17 00:09:05
  62. 0smellbody84 registered @ 2013-06-17 00:09:11, last login @ 2013-06-17 00:09:11
  63. 0alleyairbus65 registered @ 2013-06-17 00:09:48, last login @ 2013-06-17 00:09:48
  64. 0kamcias registered @ 2013-06-17 00:12:36, last login @ 2013-06-17 00:12:36
  65. 0attack2catsup registered @ 2013-06-17 00:13:28, last login @ 2013-06-17 00:13:28
  66. 0silosrp registered @ 2013-06-17 00:14:25, last login @ 2013-06-17 00:14:25
  67. 0internalhealth76 registered @ 2013-06-17 00:15:20, last login @ 2013-06-17 00:15:20
  68. 0park47tempo registered @ 2013-06-17 00:16:44, last login @ 2013-06-17 00:16:44
  69. 0cieszygor704799 registered @ 2013-06-17 00:20:00, last login @ 2013-06-17 00:20:00
  70. 0clover7test registered @ 2013-06-17 00:21:19, last login @ 2013-06-17 00:21:19
  71. 0dewworm47 registered @ 2013-06-17 00:21:34, last login @ 2013-06-17 00:21:34
  72. 0fruit32dime registered @ 2013-06-17 00:22:45, last login @ 2013-06-17 00:22:45
  73. 0salomon287406 registered @ 2013-06-17 00:23:57, last login @ 2013-06-17 00:23:57
  74. 0freon8turnip registered @ 2013-06-17 00:27:09, last login @ 2013-06-17 00:27:09
  75. 0egypt78crab registered @ 2013-06-17 00:27:13, last login @ 2013-06-17 00:27:13
  76. 0dishsponge14 registered @ 2013-06-17 00:29:21, last login @ 2013-06-17 00:29:21
  77. 0hallweasel3 registered @ 2013-06-17 00:30:53, last login @ 2013-06-17 00:30:53
  78. 0scentcase6 registered @ 2013-06-17 00:31:43, last login @ 2013-06-17 00:52:53
  79. 0climb4sampan registered @ 2013-06-17 00:32:37, last login @ 2013-06-17 00:32:37
  80. 0bottom34mouth registered @ 2013-06-17 00:34:21, last login @ 2013-06-17 00:34:21
  81. 0galloncoke47 registered @ 2013-06-17 00:39:40, last login @ 2013-06-17 00:39:40
  82. 0modemcough2 registered @ 2013-06-17 00:41:48, last login @ 2013-06-17 00:41:48
  83. 0jailwall0 registered @ 2013-06-17 00:42:17, last login @ 2013-06-17 00:42:17
  84. 0cord29green registered @ 2013-06-17 00:43:03, last login @ 2013-06-17 00:43:03
  85. 0hoodsteven7 registered @ 2013-06-17 00:43:51, last login @ 2013-06-17 00:43:51
  86. 0fruit03priest registered @ 2013-06-17 00:44:57, last login @ 2013-06-17 00:44:57
  87. 0mine8party registered @ 2013-06-17 00:47:27, last login @ 2013-06-17 00:47:27
  88. 0malletcase0 registered @ 2013-06-17 00:48:20, last login @ 2013-06-17 00:48:20
  89. 0wolf96octave registered @ 2013-06-17 00:48:39, last login @ 2013-06-17 00:48:39
  90. 0jeff0veil registered @ 2013-06-17 00:49:04, last login @ 2013-06-17 00:49:04
  91. 0makeuploan73 registered @ 2013-06-17 00:49:29, last login @ 2013-06-17 00:49:29
  92. 0drill59wish registered @ 2013-06-17 00:50:32, last login @ 2013-06-17 00:50:32
  93. 0mariaquill1 registered @ 2013-06-17 00:52:12, last login @ 2013-06-17 00:52:12
  94. 0button27bomber registered @ 2013-06-17 00:53:00, last login @ 2013-06-17 00:53:00
  95. 0engineerdesigns7 registered @ 2013-06-17 00:53:55, last login @ 2013-06-17 00:53:55
  96. 0salt66month registered @ 2013-06-17 00:55:13, last login @ 2013-06-17 00:55:13
  97. 0Eurodewrede registered @ 2013-06-17 00:55:43, last login @ 2013-06-17 00:55:43
  98. 0math31drop registered @ 2013-06-17 00:56:40, last login @ 2013-06-17 00:56:40
  99. 0pruner03mist registered @ 2013-06-17 00:59:09, last login @ 2013-06-17 00:59:09
  100. 0perch71broker registered @ 2013-06-17 01:00:39, last login @ 2013-06-17 01:00:39
  101. 0cross1creek registered @ 2013-06-17 01:01:13, last login @ 2013-06-17 01:01:13

More...

[7927] [7926] [7925] [7924] [7923] [7922] [7921] [7920] [7919] [7918] [7917] [7916] [7915] [7914] [7913] [7912] [7911] [7910] [7909] [7908] ...[1]
Back to Top